Aérodrome :
LOGIN :

S'inscrire | Disclaimer

   EN    FR    IT 

 










Légende :    VFR   VFR Marginal   IFR   IFR Intensif   IFR Très Intensif
Visi : 
Plafond : 
>= 8 km
>= 3000ft
5 à 8 km
1000 à 3000 ft
1500m à 5 km
500 à 1000 ft
800 à 1500m
200 à 500 ft
< 800m
< 200 ft
Symboles :   Orages  Brouillard  Fortes neiges  Fortes précipitations  Vent > 20 kt
SIGMETs :   Divers  Orages  Givrage  Turbulence  Onde Orograph.  Cendres Volcan.







- Altitude de l'aérodrome : 72 ft
- Code IATA : UDE


EHVK - Volkel Airbase

DERNIER METAR :
  • 222325Z AUTO 16006KT 130V190 5000 BR OVC010 M01/M02 Q0999 BLACKGRN

METARs EXPIRÉS :
  • 222255Z AUTO 15005KT 5000 BR OVC009 M01/M02 Q1000 BLACKGRN
  • 222239Z AUTO 16005KT 5000 BR OVC010 M01/M02 Q1000 BLACKGRN
  • 222225Z AUTO 16006KT 4800 BR OVC009 M01/M02 Q1000 BLACKGRN
  • 222207Z AUTO 16006KT 130V190 4900 BR OVC010 M01/M02 Q1000 BLACKGRN
  • 222155Z AUTO 15006KT 5000 BR FEW007 OVC010 M01/M02 Q1000 BLACKGRN
  • 222125Z AUTO 15007KT 4600 BR FEW007 OVC011 M01/M02 Q1000 BLACKGRN
  • 222055Z AUTO 17006KT 4700 BR FEW007 OVC010 M01/M02 Q1000 BLACKGRN
  • 222038Z AUTO 16007KT 130V190 4600 BR FEW006 BKN007 BKN008 M01/M02 Q1000 BLACKGRN

TAF TAF EHVK
Valide du 22 à 22h jusqu'au 23 à 10h UTC


222122Z 2222/2310 17006KT 6000 BKN010
TEMPO 2222/2305 4000 BR BKN005
PROB40
TEMPO 2222/2310 2500 BR
Pas de NOTAMs connus pour ce terrain.



MET'MAP, la Météo Aéronautique d'un coup d'oeil ! - Copyright ORBIFLY Décembre 2007 - Disclaimer

ORBIFLY MET'MAP TEAM :

Programmation & Développement : Alexandra Zaïnal
Conception & Développement : Baudouin d'Aumeries
Co-Programmation & Développement : Marc-Olivier Méhu
Soutien technique & logistique : Manuel Goepfert

Contact : metmap@orbifly.com




SOURCES & CREDITS :

   NOAA